Villabona, Spain
Current Conditions -  °F | °C
As of 7:00 AM on Thursday 29 Jan 2015 (Local Time) from LESO Reporting Station
Broken Clouds Broken Clouds  
Wind Chill: 12°   Ceiling: 4000
Heat Index: 12°   Visibility: 6mi
Dew Point:   Wind: 8mph
Humidity: 77%   Direction: 230°SW
Pressure: 29.94"   Gusts: NA
Location:  43.19°N, 2.05°W
Report Text: LESO 290600Z 23007KT 180V280 9999 SCT030 BKN040 12/08 Q1014
Loading
Personal Weather Stations






























Interactive Weather Map New forecast layout! Learn more

10-Day Weather Forecast

Advertisements
Track Severe Weather on mobile